sensor_id;sensor_type;location;lat;lon;timestamp;pressure;altitude;pressure_sealevel;temperature;humidity
54194;BME280;40102;50.906;6.972;2023-02-21T00:00:58;101468.69;;;9.31;79.15
54194;BME280;40102;50.906;6.972;2023-02-21T00:03:42;101470.44;;;9.32;79.41
54194;BME280;40102;50.906;6.972;2023-02-21T00:06:26;101480.75;;;9.41;78.91
54194;BME280;40102;50.906;6.972;2023-02-21T00:09:10;101467.69;;;9.34;78.98
54194;BME280;40102;50.906;6.972;2023-02-21T00:11:54;101476.22;;;9.44;78.89
54194;BME280;40102;50.906;6.972;2023-02-21T00:14:38;101465.66;;;9.40;78.94
54194;BME280;40102;50.906;6.972;2023-02-21T00:17:22;101455.22;;;9.34;78.88
54194;BME280;40102;50.906;6.972;2023-02-21T00:20:07;101458.94;;;9.30;78.72
54194;BME280;40102;50.906;6.972;2023-02-21T00:22:51;101468.75;;;9.30;79.46
54194;BME280;40102;50.906;6.972;2023-02-21T00:25:35;101466.13;;;9.28;79.58
54194;BME280;40102;50.906;6.972;2023-02-21T00:28:19;101460.03;;;9.25;79.88
54194;BME280;40102;50.906;6.972;2023-02-21T00:31:04;101479.25;;;9.34;80.15
54194;BME280;40102;50.906;6.972;2023-02-21T00:33:48;101463.34;;;9.31;79.97
54194;BME280;40102;50.906;6.972;2023-02-21T00:36:32;101466.88;;;9.32;79.63
54194;BME280;40102;50.906;6.972;2023-02-21T00:39:15;101470.44;;;9.32;79.45
54194;BME280;40102;50.906;6.972;2023-02-21T00:41:59;101482.97;;;9.30;79.21
54194;BME280;40102;50.906;6.972;2023-02-21T00:44:43;101483.72;;;9.34;79.40
54194;BME280;40102;50.906;6.972;2023-02-21T00:47:27;101489.81;;;9.37;79.28
54194;BME280;40102;50.906;6.972;2023-02-21T00:50:12;101481.34;;;9.26;79.29
54194;BME280;40102;50.906;6.972;2023-02-21T00:52:56;101475.31;;;9.21;79.82
54194;BME280;40102;50.906;6.972;2023-02-21T00:55:40;101476.34;;;9.17;80.47
54194;BME280;40102;50.906;6.972;2023-02-21T00:58:24;101479.78;;;9.21;80.38
54194;BME280;40102;50.906;6.972;2023-02-21T01:01:08;101485.97;;;9.21;80.32
54194;BME280;40102;50.906;6.972;2023-02-21T01:03:52;101471.94;;;9.16;80.26
54194;BME280;40102;50.906;6.972;2023-02-21T01:06:36;101465.09;;;9.09;80.59
54194;BME280;40102;50.906;6.972;2023-02-21T01:09:19;101457.84;;;9.13;80.29
54194;BME280;40102;50.906;6.972;2023-02-21T01:12:04;101462.13;;;9.17;80.16
54194;BME280;40102;50.906;6.972;2023-02-21T01:14:48;101459.41;;;9.18;79.98
54194;BME280;40102;50.906;6.972;2023-02-21T01:17:32;101459.28;;;9.21;79.79
54194;BME280;40102;50.906;6.972;2023-02-21T01:20:15;101458.19;;;9.27;79.77
54194;BME280;40102;50.906;6.972;2023-02-21T01:22:59;101445.88;;;9.23;79.59
54194;BME280;40102;50.906;6.972;2023-02-21T01:25:43;101453.66;;;9.29;79.57
54194;BME280;40102;50.906;6.972;2023-02-21T01:28:27;101450.22;;;9.25;79.25
54194;BME280;40102;50.906;6.972;2023-02-21T01:31:18;101462.47;;;9.31;79.31
54194;BME280;40102;50.906;6.972;2023-02-21T01:34:03;101453.53;;;9.32;79.30
54194;BME280;40102;50.906;6.972;2023-02-21T01:36:47;101460.72;;;9.30;78.92
54194;BME280;40102;50.906;6.972;2023-02-21T01:39:31;101453.03;;;9.22;79.33
54194;BME280;40102;50.906;6.972;2023-02-21T01:42:15;101447.22;;;9.11;79.54
54194;BME280;40102;50.906;6.972;2023-02-21T01:48:11;101443.91;;;9.04;80.61
54194;BME280;40102;50.906;6.972;2023-02-21T01:50:56;101451.06;;;9.04;80.66
54194;BME280;40102;50.906;6.972;2023-02-21T01:53:41;101448.66;;;8.96;80.76
54194;BME280;40102;50.906;6.972;2023-02-21T01:56:27;101450.47;;;8.96;81.61
54194;BME280;40102;50.906;6.972;2023-02-21T01:59:12;101441.41;;;9.00;81.75
54194;BME280;40102;50.906;6.972;2023-02-21T02:02:14;101455.13;;;9.14;81.35
54194;BME280;40102;50.906;6.972;2023-02-21T02:05:02;101444.56;;;9.11;80.94
54194;BME280;40102;50.906;6.972;2023-02-21T02:07:47;101453.91;;;9.23;80.72
54194;BME280;40102;50.906;6.972;2023-02-21T02:10:32;101451.28;;;9.21;80.47
54194;BME280;40102;50.906;6.972;2023-02-21T02:13:43;101446.56;;;9.28;80.11
54194;BME280;40102;50.906;6.972;2023-02-21T02:22:07;101443.84;;;9.29;80.02
54194;BME280;40102;50.906;6.972;2023-02-21T02:27:30;101446.41;;;9.32;79.92
54194;BME280;40102;50.906;6.972;2023-02-21T02:32:47;101445.59;;;9.30;79.81
54194;BME280;40102;50.906;6.972;2023-02-21T02:35:27;101435.03;;;9.27;79.87
54194;BME280;40102;50.906;6.972;2023-02-21T02:40:46;101435.03;;;9.27;80.08
54194;BME280;40102;50.906;6.972;2023-02-21T02:43:21;101426.44;;;9.19;79.92
54194;BME280;40102;50.906;6.972;2023-02-21T02:45:57;101421.06;;;9.21;80.10
54194;BME280;40102;50.906;6.972;2023-02-21T02:48:37;101420.00;;;9.25;79.75
54194;BME280;40102;50.906;6.972;2023-02-21T02:51:09;101431.44;;;9.28;79.69
54194;BME280;40102;50.906;6.972;2023-02-21T02:53:35;101420.13;;;9.22;79.82
54194;BME280;40102;50.906;6.972;2023-02-21T02:56:06;101427.13;;;9.24;80.07
54194;BME280;40102;50.906;6.972;2023-02-21T02:58:46;101418.31;;;9.22;80.09
54194;BME280;40102;50.906;6.972;2023-02-21T03:09:25;101413.50;;;9.32;79.87
54194;BME280;40102;50.906;6.972;2023-02-21T03:12:03;101411.19;;;9.23;80.15
54194;BME280;40102;50.906;6.972;2023-02-21T03:14:37;101415.41;;;9.28;80.01
54194;BME280;40102;50.906;6.972;2023-02-21T03:17:08;101410.19;;;9.25;80.27
54194;BME280;40102;50.906;6.972;2023-02-21T03:19:38;101410.19;;;9.25;80.08
54194;BME280;40102;50.906;6.972;2023-02-21T03:22:07;101413.56;;;9.30;79.98
54194;BME280;40102;50.906;6.972;2023-02-21T03:24:37;101405.78;;;9.24;79.77
54194;BME280;40102;50.906;6.972;2023-02-21T03:27:06;101399.50;;;9.25;80.05
54194;BME280;40102;50.906;6.972;2023-02-21T03:29:33;101418.78;;;9.33;79.85
54194;BME280;40102;50.906;6.972;2023-02-21T03:32:26;101415.97;;;9.36;79.93
54194;BME280;40102;50.906;6.972;2023-02-21T03:34:52;101402.88;;;9.30;79.73
54194;BME280;40102;50.906;6.972;2023-02-21T03:37:47;101408.09;;;9.33;79.61
54194;BME280;40102;50.906;6.972;2023-02-21T03:40:17;101398.28;;;9.34;79.65
54194;BME280;40102;50.906;6.972;2023-02-21T03:42:43;101397.53;;;9.30;79.21
54194;BME280;40102;50.906;6.972;2023-02-21T03:45:09;101401.88;;;9.33;79.55
54194;BME280;40102;50.906;6.972;2023-02-21T03:47:35;101399.56;;;9.24;79.61
54194;BME280;40102;50.906;6.972;2023-02-21T03:50:00;101409.50;;;9.20;79.74
54194;BME280;40102;50.906;6.972;2023-02-21T03:52:26;101405.34;;;9.13;80.17
54194;BME280;40102;50.906;6.972;2023-02-21T03:54:51;101408.94;;;9.12;80.44
54194;BME280;40102;50.906;6.972;2023-02-21T03:57:17;101405.34;;;9.13;80.71
54194;BME280;40102;50.906;6.972;2023-02-21T03:59:42;101404.47;;;9.13;80.62
54194;BME280;40102;50.906;6.972;2023-02-21T04:02:07;101390.59;;;9.03;80.84
54194;BME280;40102;50.906;6.972;2023-02-21T04:04:33;101404.59;;;9.09;81.09
54194;BME280;40102;50.906;6.972;2023-02-21T04:06:58;101403.84;;;9.06;80.72
54194;BME280;40102;50.906;6.972;2023-02-21T04:09:24;101405.00;;;8.99;80.85
54194;BME280;40102;50.906;6.972;2023-02-21T04:11:51;101389.97;;;8.96;81.12
54194;BME280;40102;50.906;6.972;2023-02-21T04:14:16;101382.84;;;8.97;81.00
54194;BME280;40102;50.906;6.972;2023-02-21T04:16:42;101385.44;;;8.98;81.07
54194;BME280;40102;50.906;6.972;2023-02-21T04:19:07;101390.72;;;9.00;81.24
54194;BME280;40102;50.906;6.972;2023-02-21T04:21:33;101401.97;;;9.08;81.29
54194;BME280;40102;50.906;6.972;2023-02-21T04:23:58;101375.63;;;8.99;80.98
54194;BME280;40102;50.906;6.972;2023-02-21T04:26:23;101378.44;;;8.96;81.21
54194;BME280;40102;50.906;6.972;2023-02-21T04:28:50;101378.66;;;8.90;81.22
54194;BME280;40102;50.906;6.972;2023-02-21T04:31:16;101385.00;;;8.87;81.86
54194;BME280;40102;50.906;6.972;2023-02-21T04:33:42;101397.00;;;8.99;82.11
54194;BME280;40102;50.906;6.972;2023-02-21T04:36:07;101392.63;;;8.96;81.46
54194;BME280;40102;50.906;6.972;2023-02-21T04:38:33;101386.38;;;8.97;81.33
54194;BME280;40102;50.906;6.972;2023-02-21T04:40:58;101390.84;;;8.97;81.25
54194;BME280;40102;50.906;6.972;2023-02-21T04:43:24;101388.13;;;8.98;81.20
54194;BME280;40102;50.906;6.972;2023-02-21T04:45:49;101405.56;;;9.07;81.41
54194;BME280;40102;50.906;6.972;2023-02-21T04:48:15;101402.09;;;9.05;81.05
54194;BME280;40102;50.906;6.972;2023-02-21T04:50:40;101389.78;;;9.01;80.95
54194;BME280;40102;50.906;6.972;2023-02-21T04:53:06;101387.94;;;9.03;80.93
54194;BME280;40102;50.906;6.972;2023-02-21T04:55:31;101380.00;;;9.01;80.98
54194;BME280;40102;50.906;6.972;2023-02-21T04:57:56;101387.81;;;9.06;81.13
54194;BME280;40102;50.906;6.972;2023-02-21T05:00:22;101379.31;;;8.96;81.27
54194;BME280;40102;50.906;6.972;2023-02-21T05:02:48;101385.31;;;9.01;81.05
54194;BME280;40102;50.906;6.972;2023-02-21T05:05:13;101384.34;;;9.04;80.84
54194;BME280;40102;50.906;6.972;2023-02-21T05:07:41;101390.44;;;9.07;80.63
54194;BME280;40102;50.906;6.972;2023-02-21T05:10:06;101381.16;;;8.94;80.62
54194;BME280;40102;50.906;6.972;2023-02-21T05:12:33;101386.44;;;8.96;81.14
54194;BME280;40102;50.906;6.972;2023-02-21T05:14:59;101383.81;;;8.94;81.16
54194;BME280;40102;50.906;6.972;2023-02-21T05:17:25;101382.09;;;8.93;81.10
54194;BME280;40102;50.906;6.972;2023-02-21T05:19:52;101379.47;;;8.92;80.95
54194;BME280;40102;50.906;6.972;2023-02-21T05:22:17;101391.94;;;8.91;81.02
54194;BME280;40102;50.906;6.972;2023-02-21T05:24:44;101393.69;;;8.92;81.04
54194;BME280;40102;50.906;6.972;2023-02-21T05:27:12;101389.91;;;8.98;81.27
54194;BME280;40102;50.906;6.972;2023-02-21T05:29:41;101387.41;;;8.93;81.02
54194;BME280;40102;50.906;6.972;2023-02-21T05:32:06;101382.78;;;8.98;81.12
54194;BME280;40102;50.906;6.972;2023-02-21T05:34:32;101394.84;;;9.08;80.91
54194;BME280;40102;50.906;6.972;2023-02-21T05:36:57;101379.06;;;9.02;80.91
54194;BME280;40102;50.906;6.972;2023-02-21T05:39:23;101377.16;;;9.06;80.57
54194;BME280;40102;50.906;6.972;2023-02-21T05:41:49;101386.81;;;9.08;80.43
54194;BME280;40102;50.906;6.972;2023-02-21T05:44:14;101376.16;;;9.08;80.33
54194;BME280;40102;50.906;6.972;2023-02-21T05:46:40;101390.13;;;9.15;80.19
54194;BME280;40102;50.906;6.972;2023-02-21T05:49:06;101389.19;;;9.16;80.25
54194;BME280;40102;50.906;6.972;2023-02-21T05:51:36;101381.31;;;9.13;80.18
54194;BME280;40102;50.906;6.972;2023-02-21T05:54:02;101375.91;;;9.15;80.38
54194;BME280;40102;50.906;6.972;2023-02-21T05:56:27;101369.88;;;9.09;80.14
54194;BME280;40102;50.906;6.972;2023-02-21T05:58:53;101366.28;;;9.11;80.23
54194;BME280;40102;50.906;6.972;2023-02-21T06:01:18;101386.34;;;9.21;80.10
54194;BME280;40102;50.906;6.972;2023-02-21T06:03:44;101388.03;;;9.23;80.29
54194;BME280;40102;50.906;6.972;2023-02-21T06:06:09;101377.66;;;9.16;79.86
54194;BME280;40102;50.906;6.972;2023-02-21T06:08:45;101382.94;;;9.17;79.92
54194;BME280;40102;50.906;6.972;2023-02-21T06:11:11;101383.69;;;9.21;79.80
54194;BME280;40102;50.906;6.972;2023-02-21T06:13:37;101389.03;;;9.21;79.64
54194;BME280;40102;50.906;6.972;2023-02-21T06:16:02;101392.63;;;9.20;79.78
54194;BME280;40102;50.906;6.972;2023-02-21T06:18:28;101390.88;;;9.19;79.66
54194;BME280;40102;50.906;6.972;2023-02-21T06:20:53;101385.72;;;9.14;79.62
54194;BME280;40102;50.906;6.972;2023-02-21T06:23:18;101382.25;;;9.12;79.75
54194;BME280;40102;50.906;6.972;2023-02-21T06:25:44;101391.19;;;9.11;79.79
54194;BME280;40102;50.906;6.972;2023-02-21T06:28:09;101400.88;;;9.14;79.75
54194;BME280;40102;50.906;6.972;2023-02-21T06:30:35;101400.06;;;9.12;79.82
54194;BME280;40102;50.906;6.972;2023-02-21T06:33:00;101385.38;;;9.00;80.04
54194;BME280;40102;50.906;6.972;2023-02-21T06:35:25;101382.03;;;8.95;80.85
54194;BME280;40102;50.906;6.972;2023-02-21T06:37:51;101378.53;;;8.93;81.04
54194;BME280;40102;50.906;6.972;2023-02-21T06:40:16;101407.66;;;8.99;81.06
54194;BME280;40102;50.906;6.972;2023-02-21T06:42:41;101390.44;;;8.84;81.11
54194;BME280;40102;50.906;6.972;2023-02-21T06:45:07;101397.00;;;8.75;81.67
54194;BME280;40102;50.906;6.972;2023-02-21T06:47:32;101401.63;;;8.70;82.57
54194;BME280;40102;50.906;6.972;2023-02-21T06:49:58;101400.13;;;8.63;82.68
54194;BME280;40102;50.906;6.972;2023-02-21T06:52:23;101395.94;;;8.56;83.43
54194;BME280;40102;50.906;6.972;2023-02-21T06:54:49;101388.00;;;8.55;83.66
54194;BME280;40102;50.906;6.972;2023-02-21T06:57:15;101389.84;;;8.53;83.50
54194;BME280;40102;50.906;6.972;2023-02-21T06:59:40;101399.63;;;8.52;83.88
54194;BME280;40102;50.906;6.972;2023-02-21T07:02:14;101389.25;;;8.44;84.08
54194;BME280;40102;50.906;6.972;2023-02-21T07:04:42;101398.66;;;8.55;84.08
54194;BME280;40102;50.906;6.972;2023-02-21T07:07:07;101395.34;;;8.48;84.51
54194;BME280;40102;50.906;6.972;2023-02-21T07:09:33;101389.31;;;8.43;84.84
54194;BME280;40102;50.906;6.972;2023-02-21T07:11:58;101402.69;;;8.41;85.21
54194;BME280;40102;50.906;6.972;2023-02-21T07:14:24;101406.75;;;8.52;85.73
54194;BME280;40102;50.906;6.972;2023-02-21T07:16:49;101398.97;;;8.46;85.64
54194;BME280;40102;50.906;6.972;2023-02-21T07:19:15;101393.28;;;8.80;95.80
54194;BME280;40102;50.906;6.972;2023-02-21T07:21:42;101392.06;;;9.33;94.20
54194;BME280;40102;50.906;6.972;2023-02-21T07:24:07;101418.16;;;9.92;90.64
54194;BME280;40102;50.906;6.972;2023-02-21T07:26:32;101391.06;;;10.22;87.91
54194;BME280;40102;50.906;6.972;2023-02-21T07:28:58;101393.00;;;10.38;84.51
54194;BME280;40102;50.906;6.972;2023-02-21T07:31:23;101404.63;;;10.37;80.93
54194;BME280;40102;50.906;6.972;2023-02-21T07:33:48;101397.38;;;10.19;79.56
54194;BME280;40102;50.906;6.972;2023-02-21T07:36:14;101393.09;;;9.95;79.02
54194;BME280;40102;50.906;6.972;2023-02-21T07:38:40;101400.75;;;9.82;79.34
54194;BME280;40102;50.906;6.972;2023-02-21T07:41:05;101396.09;;;9.65;79.74
54194;BME280;40102;50.906;6.972;2023-02-21T07:43:31;101398.59;;;9.48;79.90
54194;BME280;40102;50.906;6.972;2023-02-21T07:45:56;101417.78;;;9.36;80.84
54194;BME280;40102;50.906;6.972;2023-02-21T07:48:22;101416.81;;;9.15;81.90
54194;BME280;40102;50.906;6.972;2023-02-21T07:50:47;101402.16;;;9.03;82.47
54194;BME280;40102;50.906;6.972;2023-02-21T07:53:14;101404.25;;;8.95;83.13
54194;BME280;40102;50.906;6.972;2023-02-21T07:55:40;101403.44;;;8.93;83.22
54194;BME280;40102;50.906;6.972;2023-02-21T07:58:06;101411.56;;;8.90;83.25
54194;BME280;40102;50.906;6.972;2023-02-21T08:00:31;101400.19;;;8.85;83.53
54194;BME280;40102;50.906;6.972;2023-02-21T08:02:57;101407.91;;;8.93;83.52
54194;BME280;40102;50.906;6.972;2023-02-21T08:05:23;101408.72;;;8.95;83.74
54194;BME280;40102;50.906;6.972;2023-02-21T08:07:48;101406.97;;;8.94;83.60
54194;BME280;40102;50.906;6.972;2023-02-21T08:10:24;101405.00;;;8.99;83.42
54194;BME280;40102;50.906;6.972;2023-02-21T08:12:50;101403.78;;;9.07;82.88
54194;BME280;40102;50.906;6.972;2023-02-21T08:15:16;101403.78;;;9.07;82.42
54194;BME280;40102;50.906;6.972;2023-02-21T08:17:41;101386.44;;;8.96;82.71
54194;BME280;40102;50.906;6.972;2023-02-21T08:20:07;101397.91;;;8.98;82.76
54194;BME280;40102;50.906;6.972;2023-02-21T08:22:33;101391.03;;;8.92;83.21
54194;BME280;40102;50.906;6.972;2023-02-21T08:25:00;101394.63;;;8.91;83.39
54194;BME280;40102;50.906;6.972;2023-02-21T08:27:25;101403.19;;;8.99;83.79
54194;BME280;40102;50.906;6.972;2023-02-21T08:29:51;101398.16;;;8.92;83.36
54194;BME280;40102;50.906;6.972;2023-02-21T08:32:17;101404.28;;;8.94;83.44
54194;BME280;40102;50.906;6.972;2023-02-21T08:34:51;101400.13;;;8.87;83.93
54194;BME280;40102;50.906;6.972;2023-02-21T08:37:17;101393.84;;;8.88;83.93
54194;BME280;40102;50.906;6.972;2023-02-21T08:39:48;101403.53;;;8.90;84.10
54194;BME280;40102;50.906;6.972;2023-02-21T08:42:15;101396.66;;;8.85;83.98
54194;BME280;40102;50.906;6.972;2023-02-21T08:44:44;101390.63;;;8.80;83.95
54194;BME280;40102;50.906;6.972;2023-02-21T08:47:11;101402.16;;;8.80;84.56
54194;BME280;40102;50.906;6.972;2023-02-21T08:49:36;101406.66;;;8.78;84.74
54194;BME280;40102;50.906;6.972;2023-02-21T08:52:05;101405.97;;;8.73;84.73
54194;BME280;40102;50.906;6.972;2023-02-21T08:54:30;101412.88;;;8.79;85.43
54194;BME280;40102;50.906;6.972;2023-02-21T08:56:56;101402.31;;;8.75;84.90
54194;BME280;40102;50.906;6.972;2023-02-21T08:59:23;101399.78;;;8.72;85.02
54194;BME280;40102;50.906;6.972;2023-02-21T09:01:48;101388.22;;;8.72;84.60
54194;BME280;40102;50.906;6.972;2023-02-21T09:04:13;101401.16;;;8.83;84.71
54194;BME280;40102;50.906;6.972;2023-02-21T09:06:39;101406.09;;;8.93;84.28
54194;BME280;40102;50.906;6.972;2023-02-21T09:09:04;101391.94;;;8.91;83.74
54194;BME280;40102;50.906;6.972;2023-02-21T09:11:30;101393.63;;;8.94;83.26
54194;BME280;40102;50.906;6.972;2023-02-21T09:13:56;101379.47;;;8.92;83.03
54194;BME280;40102;50.906;6.972;2023-02-21T09:16:21;101382.97;;;8.94;83.02
54194;BME280;40102;50.906;6.972;2023-02-21T09:18:57;101380.28;;;8.94;83.47
54194;BME280;40102;50.906;6.972;2023-02-21T09:21:24;101385.56;;;8.95;83.52
54194;BME280;40102;50.906;6.972;2023-02-21T09:23:54;101391.47;;;9.03;83.30
54194;BME280;40102;50.906;6.972;2023-02-21T09:26:21;101386.81;;;9.08;83.00
54194;BME280;40102;50.906;6.972;2023-02-21T09:28:48;101379.69;;;9.09;82.38
54194;BME280;40102;50.906;6.972;2023-02-21T09:31:13;101377.16;;;9.06;82.51
54194;BME280;40102;50.906;6.972;2023-02-21T09:33:38;101379.81;;;9.06;82.86
54194;BME280;40102;50.906;6.972;2023-02-21T09:36:06;101376.34;;;9.04;83.13
54194;BME280;40102;50.906;6.972;2023-02-21T09:38:32;101390.19;;;9.14;83.08
54194;BME280;40102;50.906;6.972;2023-02-21T09:41:03;101374.41;;;9.07;83.06
54194;BME280;40102;50.906;6.972;2023-02-21T09:43:37;101378.19;;;9.02;83.20
54194;BME280;40102;50.906;6.972;2023-02-21T09:46:31;101376.69;;;8.95;83.87
54194;BME280;40102;50.906;6.972;2023-02-21T09:48:58;101384.56;;;8.98;84.14
54194;BME280;40102;50.906;6.972;2023-02-21T09:51:25;101378.31;;;8.99;84.17
54194;BME280;40102;50.906;6.972;2023-02-21T09:53:53;101381.38;;;9.12;83.80
54194;BME280;40102;50.906;6.972;2023-02-21T09:56:30;101375.97;;;9.13;83.59
54194;BME280;40102;50.906;6.972;2023-02-21T09:58:58;101384.63;;;9.20;83.34
54194;BME280;40102;50.906;6.972;2023-02-21T10:07:07;101374.06;;;9.17;83.05
54194;BME280;40102;50.906;6.972;2023-02-21T10:09:44;101386.97;;;9.27;83.04
54194;BME280;40102;50.906;6.972;2023-02-21T10:17:49;101370.03;;;9.28;83.03
54194;BME280;40102;50.906;6.972;2023-02-21T10:20:37;101369.34;;;9.23;83.30
54194;BME280;40102;50.906;6.972;2023-02-21T10:23:16;101371.94;;;9.25;82.82
54194;BME280;40102;50.906;6.972;2023-02-21T10:25:43;101377.97;;;9.30;82.59
54194;BME280;40102;50.906;6.972;2023-02-21T10:28:17;101372.19;;;9.19;83.17
54194;BME280;40102;50.906;6.972;2023-02-21T10:30:43;101378.41;;;9.19;83.66
54194;BME280;40102;50.906;6.972;2023-02-21T10:33:09;101366.97;;;9.16;83.71
54194;BME280;40102;50.906;6.972;2023-02-21T10:35:36;101365.94;;;9.20;83.59
54194;BME280;40102;50.906;6.972;2023-02-21T10:38:05;101361.00;;;9.09;83.63
54194;BME280;40102;50.906;6.972;2023-02-21T10:40:36;101389.38;;;9.12;84.20
54194;BME280;40102;50.906;6.972;2023-02-21T10:43:25;101372.03;;;9.00;85.57
54194;BME280;40102;50.906;6.972;2023-02-21T10:46:05;101386.09;;;9.05;85.89
54194;BME280;40102;50.906;6.972;2023-02-21T10:48:35;101376.97;;;9.11;85.60
54194;BME280;40102;50.906;6.972;2023-02-21T10:53:52;101365.72;;;9.02;85.25
54194;BME280;40102;50.906;6.972;2023-02-21T10:56:21;101369.03;;;9.09;85.56
54194;BME280;40102;50.906;6.972;2023-02-21T10:58:51;101378.34;;;9.21;85.12
54194;BME280;40102;50.906;6.972;2023-02-21T11:03:58;101364.06;;;9.22;84.80
54194;BME280;40102;50.906;6.972;2023-02-21T11:06:36;101360.47;;;9.23;84.67
54194;BME280;40102;50.906;6.972;2023-02-21T11:15:05;101349.47;;;9.30;84.49
54194;BME280;40102;50.906;6.972;2023-02-21T11:17:30;101351.97;;;9.35;84.39
54194;BME280;40102;50.906;6.972;2023-02-21T11:20:09;101346.75;;;9.32;84.50
54194;BME280;40102;50.906;6.972;2023-02-21T11:22:42;101357.06;;;9.41;84.44
54194;BME280;40102;50.906;6.972;2023-02-21T11:27:37;101332.41;;;9.34;84.26
54194;BME280;40102;50.906;6.972;2023-02-21T11:30:23;101343.56;;;9.44;84.37
54194;BME280;40102;50.906;6.972;2023-02-21T11:32:51;101329.41;;;9.42;84.17
54194;BME280;40102;50.906;6.972;2023-02-21T11:37:51;101315.38;;;9.37;84.26
54194;BME280;40102;50.906;6.972;2023-02-21T11:40:43;101329.69;;;9.36;84.63
54194;BME280;40102;50.906;6.972;2023-02-21T11:43:32;101312.97;;;9.31;84.88
54194;BME280;40102;50.906;6.972;2023-02-21T11:46:16;101309.31;;;9.33;85.28
54194;BME280;40102;50.906;6.972;2023-02-21T11:51:40;101310.66;;;9.44;85.44
54194;BME280;40102;50.906;6.972;2023-02-21T11:54:08;101305.19;;;9.47;85.22
54194;BME280;40102;50.906;6.972;2023-02-21T11:59:24;101298.78;;;9.51;85.10
54194;BME280;40102;50.906;6.972;2023-02-21T12:10:45;101279.97;;;9.54;85.26
54194;BME280;40102;50.906;6.972;2023-02-21T12:24:09;101265.50;;;9.80;85.65
54194;BME280;40102;50.906;6.972;2023-02-21T12:26:49;101260.88;;;9.83;85.29
54194;BME280;40102;50.906;6.972;2023-02-21T12:35:24;101245.19;;;9.96;84.58
54194;BME280;40102;50.906;6.972;2023-02-21T12:48:57;101232.00;;;10.87;86.77
54194;BME280;40102;50.906;6.972;2023-02-21T12:51:33;101211.03;;;11.14;86.66
54194;BME280;40102;50.906;6.972;2023-02-21T12:54:09;101218.53;;;11.42;81.61
54194;BME280;40102;50.906;6.972;2023-02-21T12:56:46;101210.72;;;11.54;78.64
54194;BME280;40102;50.906;6.972;2023-02-21T12:59:20;101220.47;;;11.73;81.30
54194;BME280;40102;50.906;6.972;2023-02-21T13:01:52;101210.34;;;11.79;78.94
54194;BME280;40102;50.906;6.972;2023-02-21T13:04:44;101202.34;;;11.95;79.40
54194;BME280;40102;50.906;6.972;2023-02-21T13:07:28;101206.00;;;12.10;80.73
54194;BME280;40102;50.906;6.972;2023-02-21T13:10:04;101204.41;;;12.23;80.05
54194;BME280;40102;50.906;6.972;2023-02-21T13:17:36;101187.28;;;12.41;79.75
54194;BME280;40102;50.906;6.972;2023-02-21T13:20:08;101190.50;;;12.63;78.02
54194;BME280;40102;50.906;6.972;2023-02-21T13:28:59;101184.13;;;12.96;77.98
54194;BME280;40102;50.906;6.972;2023-02-21T13:31:27;101177.34;;;13.20;75.65
54194;BME280;40102;50.906;6.972;2023-02-21T13:33:58;101167.84;;;13.45;74.25
54194;BME280;40102;50.906;6.972;2023-02-21T13:36:29;101165.44;;;13.54;72.23
54194;BME280;40102;50.906;6.972;2023-02-21T13:39:19;101156.72;;;13.51;71.38
54194;BME280;40102;50.906;6.972;2023-02-21T13:41:54;101156.50;;;13.40;71.65
54194;BME280;40102;50.906;6.972;2023-02-21T13:47:10;101154.78;;;13.53;72.47
54194;BME280;40102;50.906;6.972;2023-02-21T13:49:39;101153.28;;;13.63;72.36
54194;BME280;40102;50.906;6.972;2023-02-21T13:57:33;101145.50;;;13.58;70.19
54194;BME280;40102;50.906;6.972;2023-02-21T14:02:59;101140.03;;;13.60;71.95
54194;BME280;40102;50.906;6.972;2023-02-21T14:05:26;101134.44;;;13.63;70.10
54194;BME280;40102;50.906;6.972;2023-02-21T14:08:30;101144.94;;;13.82;71.43
54194;BME280;40102;50.906;6.972;2023-02-21T14:11:13;101127.63;;;14.00;69.99
54194;BME280;40102;50.906;6.972;2023-02-21T14:13:44;101135.31;;;14.20;70.17
54194;BME280;40102;50.906;6.972;2023-02-21T14:19:24;101135.31;;;14.20;69.86
54194;BME280;40102;50.906;6.972;2023-02-21T14:24:12;101121.41;;;14.41;69.58
54194;BME280;40102;50.906;6.972;2023-02-21T14:29:34;101123.97;;;14.71;68.81
54194;BME280;40102;50.906;6.972;2023-02-21T14:37:21;101103.28;;;14.71;66.67
54194;BME280;40102;50.906;6.972;2023-02-21T14:39:51;101102.41;;;14.71;67.63
54194;BME280;40102;50.906;6.972;2023-02-21T15:04:19;101109.03;;;14.52;65.56
54194;BME280;40102;50.906;6.972;2023-02-21T15:07:14;101100.50;;;14.46;66.44
54194;BME280;40102;50.906;6.972;2023-02-21T15:09:38;101099.13;;;14.53;65.64
54194;BME280;40102;50.906;6.972;2023-02-21T15:12:14;101106.06;;;14.70;64.60
54194;BME280;40102;50.906;6.972;2023-02-21T15:14:49;101086.97;;;14.60;64.63
54194;BME280;40102;50.906;6.972;2023-02-21T15:17:24;101082.09;;;14.52;64.22
54194;BME280;40102;50.906;6.972;2023-02-21T15:20:13;101098.06;;;14.55;64.57
54194;BME280;40102;50.906;6.972;2023-02-21T15:22:40;101085.75;;;14.51;64.81
54194;BME280;40102;50.906;6.972;2023-02-21T15:32:42;101089.63;;;14.33;64.36
54194;BME280;40102;50.906;6.972;2023-02-21T15:35:17;101076.13;;;14.20;64.87
54194;BME280;40102;50.906;6.972;2023-02-21T15:37:44;101080.81;;;14.17;64.92
54194;BME280;40102;50.906;6.972;2023-02-21T15:40:20;101084.59;;;14.14;65.74
54194;BME280;40102;50.906;6.972;2023-02-21T15:42:48;101078.03;;;14.18;65.48
54194;BME280;40102;50.906;6.972;2023-02-21T15:45:43;101082.16;;;14.24;65.46
54194;BME280;40102;50.906;6.972;2023-02-21T15:48:09;101069.59;;;14.10;65.20
54194;BME280;40102;50.906;6.972;2023-02-21T15:50:52;101075.94;;;14.09;65.94
54194;BME280;40102;50.906;6.972;2023-02-21T15:53:23;101076.91;;;14.08;65.55
54194;BME280;40102;50.906;6.972;2023-02-21T15:55:50;101076.44;;;14.02;65.15
54194;BME280;40102;50.906;6.972;2023-02-21T15:58:17;101091.63;;;14.03;65.13
54194;BME280;40102;50.906;6.972;2023-02-21T16:00:47;101089.31;;;13.97;65.67
54194;BME280;40102;50.906;6.972;2023-02-21T16:08:39;101080.31;;;13.69;66.33